Time;durP1;ratioP1;P1;durP2;ratioP2;P2;SDS_P1;SDS_P2;PMS_P1;PMS_P2;Temp;Humidity;BMP_temperature;BMP_pressure;BME280_temperature;BME280_humidity;BME280_pressure;Samples;Min_cycle;Max_cycle;Signal;HPM_P1;HPM_P2
2022/11/26 00:02:46;;;;;;;5.37;4.00;;;;;;;5.25;90.91;98360.28;6293630;28;20229;-43
2022/11/26 00:05:52;;;;;;;6.27;3.93;;;;;;;5.24;91.00;98367.28;6292206;28;20233;-43
2022/11/26 00:08:55;;;;;;;6.37;4.47;;;;;;;5.22;91.70;98363.03;6261082;28;20338;-44
2022/11/26 00:11:57;;;;;;;5.73;3.87;;;;;;;5.16;92.74;98365.03;6290817;28;20262;-43
2022/11/26 00:15:18;;;;;;;6.40;3.97;;;;;;;5.11;92.41;98368.75;6293513;28;20237;-43
2022/11/26 00:18:27;;;;;;;7.43;4.03;;;;;;;5.02;92.65;98369.19;6288157;28;20249;-43
2022/11/26 00:21:32;;;;;;;4.83;3.40;;;;;;;4.93;94.01;98367.88;6291918;28;20224;-43
2022/11/26 00:24:34;;;;;;;6.23;3.60;;;;;;;4.89;94.45;98371.53;6285628;28;20228;-43
2022/11/26 00:27:37;;;;;;;3.40;3.00;;;;;;;4.98;93.29;98363.28;6292464;28;20399;-43
2022/11/26 00:30:39;;;;;;;3.70;2.60;;;;;;;5.04;91.82;98373.44;6294666;28;20241;-43
2022/11/26 00:33:41;;;;;;;4.03;2.63;;;;;;;5.03;92.68;98366.50;6294849;28;20237;-43
2022/11/26 00:36:43;;;;;;;2.90;2.40;;;;;;;5.03;93.03;98382.22;6292543;28;20630;-43
2022/11/26 00:39:46;;;;;;;4.00;2.80;;;;;;;5.08;92.75;98384.63;6294955;28;20735;-43
2022/11/26 00:42:49;;;;;;;3.87;2.50;;;;;;;5.09;92.67;98395.00;6288628;28;20217;-43
2022/11/26 00:45:51;;;;;;;3.43;2.30;;;;;;;5.10;93.14;98398.47;6286939;28;20220;-43
2022/11/26 00:48:53;;;;;;;3.67;2.83;;;;;;;5.11;93.27;98389.69;6293979;28;20920;-43
2022/11/26 00:51:56;;;;;;;4.37;2.90;;;;;;;5.11;93.08;98395.78;6293524;28;20228;-44
2022/11/26 00:55:02;;;;;;;4.50;2.40;;;;;;;5.10;94.04;98391.47;6287442;28;20234;-43
2022/11/26 00:58:06;;;;;;;5.23;2.60;;;;;;;5.11;94.19;98395.78;6286326;28;20235;-43
2022/11/26 01:01:12;;;;;;;4.70;3.67;;;;;;;5.06;94.80;98392.53;6293823;28;20619;-43
2022/11/26 01:04:14;;;;;;;7.53;4.37;;;;;;;5.08;95.41;98395.09;6294305;28;20232;-43
2022/11/26 01:07:17;;;;;;;8.37;5.50;;;;;;;5.14;95.20;98395.63;6290811;28;20232;-43
2022/11/26 01:10:22;;;;;;;6.37;5.50;;;;;;;5.16;95.23;98403.41;6293502;28;20244;-43
2022/11/26 01:13:24;;;;;;;4.27;3.87;;;;;;;5.12;95.88;98407.94;6293056;28;20330;-43
2022/11/26 01:16:34;;;;;;;5.67;3.67;;;;;;;5.05;96.31;98403.06;6292506;28;20630;-43
2022/11/26 01:19:36;;;;;;;8.90;7.20;;;;;;;5.00;97.26;98412.88;6289040;28;20235;-43
2022/11/26 01:22:38;;;;;;;10.40;8.60;;;;;;;4.99;98.31;98416.44;6290511;28;20317;-43
2022/11/26 01:25:41;;;;;;;12.43;9.97;;;;;;;5.03;98.77;98415.38;6268338;28;20232;-43
2022/11/26 01:28:44;;;;;;;13.13;10.07;;;;;;;5.07;98.64;98425.63;6292102;28;20587;-43
2022/11/26 01:31:46;;;;;;;11.70;9.87;;;;;;;5.10;98.03;98427.25;6292138;28;20234;-43
2022/11/26 01:34:48;;;;;;;11.77;9.43;;;;;;;5.13;98.37;98430.56;6291375;28;20239;-43
2022/11/26 01:37:50;;;;;;;10.63;8.53;;;;;;;5.18;98.09;98426.00;6273187;28;20592;-44
2022/11/26 01:40:58;;;;;;;11.70;9.07;;;;;;;5.23;97.74;98435.38;6290780;28;20219;-43
2022/11/26 01:44:04;;;;;;;10.43;8.90;;;;;;;5.23;97.31;98445.84;6293602;28;20570;-43
2022/11/26 01:47:22;;;;;;;9.40;7.97;;;;;;;5.23;96.99;98456.31;6290585;28;20280;-43
2022/11/26 01:50:27;;;;;;;9.90;7.60;;;;;;;5.25;97.26;98447.47;6291527;28;20323;-43
2022/11/26 01:53:37;;;;;;;9.27;7.57;;;;;;;5.32;96.66;98448.03;6288530;28;20320;-44
2022/11/26 01:56:51;;;;;;;8.13;5.93;;;;;;;5.33;96.77;98450.56;6291048;28;20229;-43
2022/11/26 02:00:00;;;;;;;7.47;6.27;;;;;;;5.32;96.52;98450.63;6287548;28;20259;-43
2022/11/26 02:03:03;;;;;;;7.20;6.37;;;;;;;5.32;97.34;98461.97;6289953;28;20237;-43
2022/11/26 02:06:14;;;;;;;6.77;6.07;;;;;;;5.32;97.50;98456.72;6292652;28;20876;-42
2022/11/26 02:09:17;;;;;;;7.77;6.73;;;;;;;5.33;97.58;98458.44;6289419;28;20707;-43
2022/11/26 02:12:20;;;;;;;8.23;6.47;;;;;;;5.39;97.35;98465.16;6293134;28;20216;-43
2022/11/26 02:15:26;;;;;;;8.00;6.43;;;;;;;5.42;97.10;98463.22;6290287;28;20294;-43
2022/11/26 02:18:36;;;;;;;8.57;6.67;;;;;;;5.46;96.91;98464.78;6289742;28;20695;-43
2022/11/26 02:21:50;;;;;;;6.90;6.20;;;;;;;5.47;96.49;98465.63;6291149;28;20232;-42
2022/11/26 02:25:34;;;;;;;7.17;5.53;;;;;;;5.45;96.69;98457.00;6288121;28;20778;-42
2022/11/26 02:29:14;;;;;;;9.03;6.60;;;;;;;5.45;96.56;98459.63;6249483;28;20267;-43
2022/11/26 02:32:21;;;;;;;7.40;6.07;;;;;;;5.45;96.20;98455.22;6286778;28;20720;-43
2022/11/26 02:35:36;;;;;;;8.70;6.63;;;;;;;5.46;96.11;98461.31;6285158;28;20232;-43
2022/11/26 02:38:38;;;;;;;6.83;6.13;;;;;;;5.46;95.24;98461.31;6286679;28;20645;-43
2022/11/26 02:41:46;;;;;;;8.07;5.90;;;;;;;5.50;94.56;98457.63;6274134;28;20237;-43
2022/11/26 02:44:49;;;;;;;6.27;5.43;;;;;;;5.52;94.44;98461.88;6286749;28;20235;-43
2022/11/26 02:47:55;;;;;;;5.40;4.90;;;;;;;5.52;94.13;98461.03;6288461;28;20305;-42
2022/11/26 02:51:03;;;;;;;6.13;5.23;;;;;;;5.49;94.56;98469.03;6291032;28;20697;-43
2022/11/26 02:54:07;;;;;;;6.83;6.13;;;;;;;5.52;93.65;98458.41;6285922;28;20232;-43
2022/11/26 02:57:13;;;;;;;6.20;5.17;;;;;;;5.52;93.92;98477.56;6290523;28;20269;-43
2022/11/26 03:00:16;;;;;;;8.37;6.47;;;;;;;5.56;92.84;98480.91;6290580;28;20246;-43
2022/11/26 03:03:22;;;;;;;7.07;5.60;;;;;;;5.56;92.95;98480.91;6289296;28;20619;-43
2022/11/26 03:06:30;;;;;;;7.43;6.03;;;;;;;5.56;93.02;98486.16;6290447;28;20601;-43
2022/11/26 03:09:52;;;;;;;6.23;5.37;;;;;;;5.54;93.13;98494.06;6295204;28;20252;-43
2022/11/26 03:12:54;;;;;;;6.80;5.57;;;;;;;5.54;92.68;98486.22;6296154;28;20313;-43
2022/11/26 03:15:56;;;;;;;7.07;6.07;;;;;;;5.56;92.67;98484.38;6292740;28;20304;-43
2022/11/26 03:18:59;;;;;;;7.60;5.63;;;;;;;5.57;92.33;98483.47;6294459;28;20330;-45
2022/11/26 03:22:01;;;;;;;7.13;5.50;;;;;;;5.55;92.76;98487.91;6294844;28;20240;-43
2022/11/26 03:25:04;;;;;;;5.70;5.07;;;;;;;5.56;92.77;98489.63;6290733;28;20319;-43
2022/11/26 03:28:07;;;;;;;5.90;5.23;;;;;;;5.54;92.81;98493.22;6298149;28;20236;-43
2022/11/26 03:31:09;;;;;;;7.00;6.30;;;;;;;5.51;93.00;98494.19;6295588;28;20608;-43
2022/11/26 03:34:11;;;;;;;7.67;5.77;;;;;;;5.59;91.86;98493.84;6292069;28;20237;-44
2022/11/26 03:37:13;;;;;;;7.23;5.53;;;;;;;5.60;92.42;98500.78;6290707;28;20327;-43
2022/11/26 03:40:16;;;;;;;6.70;5.83;;;;;;;5.59;91.93;98498.25;6293502;28;20321;-43
2022/11/26 03:43:18;;;;;;;9.53;5.97;;;;;;;5.59;92.11;98511.34;6296670;28;20330;-43
2022/11/26 03:46:20;;;;;;;7.23;6.37;;;;;;;5.59;92.08;98500.88;6292513;28;20239;-43
2022/11/26 03:49:22;;;;;;;7.13;5.67;;;;;;;5.57;91.86;98504.41;6289391;28;20232;-43
2022/11/26 03:52:24;;;;;;;6.87;5.40;;;;;;;5.59;91.99;98499.06;6292132;28;20322;-43
2022/11/26 03:55:27;;;;;;;8.93;6.53;;;;;;;5.59;91.99;98514.78;6275846;28;20720;-43
2022/11/26 03:58:29;;;;;;;7.90;5.67;;;;;;;5.56;92.42;98510.56;6292738;28;20236;-43
2022/11/26 04:01:31;;;;;;;7.63;6.50;;;;;;;5.55;92.03;98523.72;6296952;28;20223;-43
2022/11/26 04:04:33;;;;;;;7.87;6.10;;;;;;;5.60;91.68;98513.88;6292404;28;20244;-43
2022/11/26 04:07:36;;;;;;;6.53;5.17;;;;;;;5.59;91.20;98530.50;6294366;28;20239;-43
2022/11/26 04:10:38;;;;;;;5.97;5.30;;;;;;;5.56;92.03;98528.03;6294791;28;20604;-43
2022/11/26 04:13:40;;;;;;;6.60;5.40;;;;;;;5.53;92.41;98533.41;6295221;28;20367;-43
2022/11/26 04:16:42;;;;;;;7.77;5.40;;;;;;;5.49;92.22;98532.69;6287766;28;20642;-43
2022/11/26 04:19:44;;;;;;;6.97;5.47;;;;;;;5.48;92.48;98541.50;6294009;28;20378;-42
2022/11/26 04:22:46;;;;;;;6.60;5.53;;;;;;;5.49;92.24;98548.41;6291545;28;20696;-43
2022/11/26 04:25:48;;;;;;;6.57;5.50;;;;;;;5.52;92.46;98547.41;6293357;28;20236;-44
2022/11/26 04:28:50;;;;;;;8.90;5.60;;;;;;;5.52;92.57;98550.88;6288074;28;20247;-43
2022/11/26 04:31:52;;;;;;;7.20;6.13;;;;;;;5.53;92.59;98552.59;6293905;28;20240;-45
2022/11/26 04:34:55;;;;;;;7.57;6.40;;;;;;;5.54;92.79;98556.91;6292497;28;20333;-43
2022/11/26 04:37:57;;;;;;;7.13;5.70;;;;;;;5.54;92.85;98558.66;6293638;28;20278;-43
2022/11/26 04:40:59;;;;;;;8.40;6.03;;;;;;;5.55;92.42;98565.59;6294198;28;20236;-44
2022/11/26 04:44:01;;;;;;;6.93;5.60;;;;;;;5.53;92.49;98560.44;6290049;28;20221;-44
2022/11/26 04:47:03;;;;;;;7.03;5.87;;;;;;;5.51;92.67;98559.66;6290681;28;20230;-43
2022/11/26 04:50:06;;;;;;;8.23;6.67;;;;;;;5.54;92.44;98571.75;6292303;28;20236;-43
2022/11/26 04:53:09;;;;;;;7.57;6.13;;;;;;;5.59;91.84;98572.38;6290591;28;20244;-43
2022/11/26 04:56:11;;;;;;;7.87;5.93;;;;;;;5.66;90.94;98579.06;6291611;28;20241;-43
2022/11/26 04:59:13;;;;;;;9.23;6.03;;;;;;;5.70;90.30;98580.59;6285638;28;20332;-43
2022/11/26 05:02:15;;;;;;;8.80;6.57;;;;;;;5.73;89.99;98584.84;6294782;28;20305;-43
2022/11/26 05:05:17;;;;;;;8.23;6.17;;;;;;;5.71;90.71;98592.78;6292476;28;20326;-43
2022/11/26 05:08:19;;;;;;;7.83;6.27;;;;;;;5.70;90.70;98587.59;6292031;28;20362;-43
2022/11/26 05:11:21;;;;;;;8.17;6.10;;;;;;;5.68;90.61;98589.47;6293718;28;20600;-43
2022/11/26 05:14:23;;;;;;;7.80;6.80;;;;;;;5.66;91.04;98594.78;6292530;28;20289;-43
2022/11/26 05:17:26;;;;;;;9.23;6.77;;;;;;;5.67;91.39;98598.25;6294851;28;20225;-43
2022/11/26 05:20:28;;;;;;;9.30;6.43;;;;;;;5.64;91.55;98596.59;6292034;28;20320;-43
2022/11/26 05:23:30;;;;;;;7.77;6.40;;;;;;;5.64;91.63;98593.97;6288670;28;20641;-43
2022/11/26 05:26:32;;;;;;;9.30;6.20;;;;;;;5.62;91.79;98594.97;6289337;28;20265;-43
2022/11/26 05:29:34;;;;;;;6.87;4.90;;;;;;;5.58;92.12;98599.50;6293012;28;20262;-43
2022/11/26 05:32:36;;;;;;;6.70;5.23;;;;;;;5.51;93.07;98613.78;6293077;28;20243;-42
2022/11/26 05:35:39;;;;;;;7.40;5.83;;;;;;;5.47;93.72;98607.84;6291139;28;20236;-43
2022/11/26 05:38:41;;;;;;;8.43;6.23;;;;;;;5.45;93.52;98609.69;6291054;28;20605;-43
2022/11/26 05:41:43;;;;;;;8.40;6.83;;;;;;;5.48;93.64;98611.31;6293155;28;20232;-43
2022/11/26 05:44:45;;;;;;;6.77;5.70;;;;;;;5.46;94.25;98623.63;6291941;28;20228;-43
2022/11/26 05:47:47;;;;;;;6.87;5.43;;;;;;;5.43;94.48;98628.97;6290449;28;20327;-43
2022/11/26 05:50:57;;;;;;;6.60;5.83;;;;;;;5.41;94.32;98633.44;6289680;28;20707;-43
2022/11/26 05:53:59;;;;;;;7.43;5.87;;;;;;;5.38;94.81;98631.81;6291155;28;20743;-45
2022/11/26 05:57:01;;;;;;;9.47;6.40;;;;;;;5.40;95.35;98639.59;6286174;28;20265;-43
2022/11/26 06:00:04;;;;;;;9.17;7.13;;;;;;;5.42;95.18;98640.38;6290500;28;20402;-43
2022/11/26 06:03:12;;;;;;;8.97;6.30;;;;;;;5.43;95.13;98647.31;6292706;28;20210;-43
2022/11/26 06:06:20;;;;;;;12.73;9.00;;;;;;;5.45;94.74;98651.56;6292451;28;20239;-45
2022/11/26 06:09:23;;;;;;;9.80;7.23;;;;;;;5.51;94.34;98643.44;6290388;28;20236;-43
2022/11/26 06:12:25;;;;;;;11.87;7.47;;;;;;;5.54;94.42;98651.16;6293201;28;20305;-43
2022/11/26 06:15:27;;;;;;;10.43;7.37;;;;;;;5.57;93.92;98658.03;6289726;28;20591;-43
2022/11/26 06:18:29;;;;;;;9.83;7.30;;;;;;;5.57;93.85;98661.50;6291835;28;20228;-43
2022/11/26 06:21:31;;;;;;;7.87;6.57;;;;;;;5.60;94.06;98670.13;6271189;28;20366;-43
2022/11/26 06:24:33;;;;;;;9.07;7.07;;;;;;;5.61;93.74;98656.97;6293204;28;20235;-43
2022/11/26 06:27:36;;;;;;;9.10;6.80;;;;;;;5.61;93.89;98667.44;6290819;28;20218;-43
2022/11/26 06:30:38;;;;;;;10.80;8.20;;;;;;;5.65;93.64;98670.78;6291170;28;20321;-43
2022/11/26 06:33:40;;;;;;;10.80;8.17;;;;;;;5.71;92.52;98668.72;6291824;28;20227;-43
2022/11/26 06:36:42;;;;;;;9.40;6.97;;;;;;;5.75;92.31;98686.00;6289297;28;20279;-43
2022/11/26 06:39:44;;;;;;;9.10;7.33;;;;;;;5.76;92.39;98677.25;6290546;28;20247;-43
2022/11/26 06:42:51;;;;;;;8.53;6.63;;;;;;;5.76;92.01;98679.84;6291411;28;20233;-43
2022/11/26 06:45:53;;;;;;;12.67;8.50;;;;;;;5.76;92.29;98687.72;6295710;28;20708;-43
2022/11/26 06:49:01;;;;;;;10.73;7.33;;;;;;;5.82;91.58;98691.81;6289965;28;20642;-43
2022/11/26 06:52:03;;;;;;;9.63;7.10;;;;;;;5.82;91.40;98692.66;6292522;28;20349;-43
2022/11/26 06:55:06;;;;;;;6.13;5.53;;;;;;;5.81;92.05;98697.97;6286657;28;20762;-43
2022/11/26 06:58:08;;;;;;;9.37;6.90;;;;;;;5.79;92.09;98702.44;6290749;28;20233;-43
2022/11/26 07:01:14;;;;;;;7.50;6.67;;;;;;;5.79;92.16;98700.66;6290514;28;20232;-43
2022/11/26 07:04:16;;;;;;;9.77;6.73;;;;;;;5.81;92.10;98701.44;6290699;28;20237;-43
2022/11/26 07:07:18;;;;;;;7.27;6.17;;;;;;;5.82;91.99;98705.75;6287062;28;20434;-43
2022/11/26 07:10:20;;;;;;;8.10;7.00;;;;;;;5.84;91.76;98716.19;6291208;28;20239;-43
2022/11/26 07:13:22;;;;;;;8.23;6.70;;;;;;;5.86;91.92;98717.81;6286760;28;20323;-44
2022/11/26 07:16:25;;;;;;;8.37;7.10;;;;;;;5.85;91.98;98718.72;6287658;28;20764;-43
2022/11/26 07:19:27;;;;;;;12.43;6.70;;;;;;;5.88;92.00;98723.88;6287594;28;20232;-43
2022/11/26 07:22:29;;;;;;;7.57;6.10;;;;;;;5.90;91.71;98727.25;6287709;28;20862;-43
2022/11/26 07:25:31;;;;;;;8.87;6.70;;;;;;;5.95;91.67;98734.91;6292111;28;20285;-44
2022/11/26 07:28:34;;;;;;;10.83;7.20;;;;;;;5.99;91.20;98733.84;6283888;28;20276;-43
2022/11/26 07:31:36;;;;;;;9.33;7.53;;;;;;;6.05;90.88;98733.59;6291482;28;20948;-44
2022/11/26 07:34:39;;;;;;;10.40;7.00;;;;;;;6.09;90.14;98747.41;6288783;28;20798;-44
2022/11/26 07:37:42;;;;;;;9.20;6.57;;;;;;;6.13;89.76;98744.56;6288014;28;20235;-44
2022/11/26 07:40:44;;;;;;;7.67;5.90;;;;;;;6.23;88.89;98743.22;6288261;28;20763;-43
2022/11/26 07:43:46;;;;;;;9.73;6.07;;;;;;;6.36;88.01;98747.91;6290696;28;20594;-43
2022/11/26 07:46:50;;;;;;;8.47;5.97;;;;;;;6.45;87.51;98742.25;6271175;28;20688;-43
2022/11/26 07:49:52;;;;;;;9.27;6.43;;;;;;;6.51;87.39;98749.81;6288456;28;20232;-43
2022/11/26 07:52:55;;;;;;;6.90;4.93;;;;;;;6.53;87.00;98748.81;6284213;28;20225;-43
2022/11/26 07:55:57;;;;;;;8.90;6.57;;;;;;;6.51;87.06;98755.91;6295318;28;20330;-43
2022/11/26 07:59:00;;;;;;;8.63;5.73;;;;;;;6.51;86.77;98769.03;6290338;28;20302;-43
2022/11/26 08:02:02;;;;;;;10.67;5.57;;;;;;;6.59;86.56;98759.00;6294657;28;20665;-45
2022/11/26 08:05:05;;;;;;;7.63;5.37;;;;;;;6.70;86.16;98763.75;6294585;28;20221;-44
2022/11/26 08:08:07;;;;;;;8.63;4.63;;;;;;;6.77;86.22;98761.72;6287824;28;20320;-43
2022/11/26 08:11:15;;;;;;;7.70;5.07;;;;;;;6.84;86.04;98769.22;6293238;28;20253;-44
2022/11/26 08:14:17;;;;;;;6.87;5.27;;;;;;;6.93;85.47;98770.53;6294101;28;20241;-45
2022/11/26 08:17:20;;;;;;;6.83;4.73;;;;;;;7.01;84.75;98776.25;6295331;28;20240;-44
2022/11/26 08:20:23;;;;;;;10.93;4.97;;;;;;;7.12;84.41;98762.63;6291867;28;20284;-44
2022/11/26 08:23:30;;;;;;;7.73;5.03;;;;;;;7.14;84.26;98776.53;6285351;28;20599;-44
2022/11/26 08:26:33;;;;;;;6.73;4.57;;;;;;;7.21;83.69;98767.41;6292363;28;20229;-45
2022/11/26 08:29:43;;;;;;;6.93;4.30;;;;;;;7.30;83.13;98770.44;6291867;28;20242;-44
2022/11/26 08:32:45;;;;;;;4.80;4.07;;;;;;;7.39;82.57;98766.50;6294380;28;20716;-45
2022/11/26 08:35:47;;;;;;;5.37;3.73;;;;;;;7.40;81.85;98771.69;6292063;28;20331;-43
2022/11/26 08:39:12;;;;;;;10.50;4.33;;;;;;;7.33;80.79;98758.94;6293578;28;20233;-43
2022/11/26 08:42:14;;;;;;;5.77;3.87;;;;;;;7.28;80.65;98774.09;6293902;28;20241;-43
2022/11/26 08:45:16;;;;;;;4.90;3.77;;;;;;;7.29;79.80;98775.75;6294590;28;20257;-44
2022/11/26 08:48:18;;;;;;;4.17;3.03;;;;;;;7.28;79.80;98774.94;6291735;28;20302;-44
2022/11/26 08:51:21;;;;;;;6.00;3.20;;;;;;;7.24;79.81;98768.13;6289086;28;20305;-43
2022/11/26 08:54:23;;;;;;;8.00;3.70;;;;;;;7.18;79.54;98775.47;6289291;28;20243;-43
2022/11/26 08:57:25;;;;;;;6.03;3.67;;;;;;;7.17;79.77;98776.38;6283345;28;20247;-44
2022/11/26 09:00:27;;;;;;;6.83;3.37;;;;;;;7.07;79.75;98781.22;6292498;28;20272;-43
2022/11/26 09:03:31;;;;;;;6.73;3.57;;;;;;;7.04;79.71;98787.47;6288282;28;20228;-43
2022/11/26 09:06:35;;;;;;;4.83;3.40;;;;;;;7.07;80.16;98799.59;6291796;28;20245;-44
2022/11/26 09:09:38;;;;;;;4.77;3.57;;;;;;;7.10;79.64;98793.34;6286123;28;20241;-44
2022/11/26 09:12:41;;;;;;;5.17;3.40;;;;;;;7.19;79.26;98793.75;6291471;28;20228;-44
2022/11/26 09:15:43;;;;;;;3.87;3.07;;;;;;;7.32;78.68;98799.25;6293478;28;20643;-44
2022/11/26 09:18:45;;;;;;;4.97;2.90;;;;;;;7.45;78.80;98804.75;6291448;28;20647;-45
2022/11/26 09:21:47;;;;;;;8.50;3.53;;;;;;;7.53;78.71;98806.06;6292110;28;20317;-44
2022/11/26 09:24:49;;;;;;;6.83;3.13;;;;;;;7.59;78.41;98807.53;6273208;28;20235;-44
2022/11/26 09:27:51;;;;;;;6.80;3.73;;;;;;;7.62;77.63;98805.59;6288475;28;20705;-43
2022/11/26 09:30:58;;;;;;;3.80;3.37;;;;;;;7.77;77.81;98810.09;6289617;28;20234;-44
2022/11/26 09:34:01;;;;;;;8.73;4.60;;;;;;;7.87;75.73;98810.47;6289691;28;20297;-44
2022/11/26 09:37:03;;;;;;;5.37;3.83;;;;;;;7.91;76.46;98819.88;6291781;28;20241;-44
2022/11/26 09:40:06;;;;;;;5.13;3.13;;;;;;;8.00;76.14;98827.28;6291074;28;20701;-44
2022/11/26 09:43:37;;;;;;;7.23;3.83;;;;;;;8.05;75.14;98825.28;6292761;28;20225;-43
2022/11/26 09:47:13;;;;;;;5.63;3.80;;;;;;;8.01;75.84;98828.16;6282679;28;20222;-44
2022/11/26 09:50:27;;;;;;;5.17;3.97;;;;;;;8.10;76.24;98833.78;6291990;28;20238;-43
2022/11/26 09:53:35;;;;;;;6.87;3.57;;;;;;;8.08;75.32;98837.44;6273596;28;20230;-44
2022/11/26 09:56:37;;;;;;;5.40;3.93;;;;;;;8.24;76.19;98829.59;6296866;28;20764;-44
2022/11/26 09:59:40;;;;;;;5.97;4.40;;;;;;;8.44;75.78;98825.00;6278265;28;20286;-44
2022/11/26 10:02:43;;;;;;;5.43;4.07;;;;;;;8.87;73.62;98826.19;6292946;28;20278;-44
2022/11/26 10:05:58;;;;;;;3.83;3.00;;;;;;;9.38;72.96;98823.34;6292001;28;20229;-44
2022/11/26 10:09:21;;;;;;;6.47;3.47;;;;;;;9.63;72.31;98826.25;6289481;28;20752;-44
2022/11/26 10:12:41;;;;;;;4.03;3.40;;;;;;;9.93;70.87;98818.31;6271571;28;20234;-44
2022/11/26 10:16:16;;;;;;;6.17;3.77;;;;;;;10.15;69.15;98810.81;6289849;28;20275;-45
2022/11/26 10:19:47;;;;;;;5.40;4.00;;;;;;;10.16;68.04;98824.88;6286319;28;20556;-44
2022/11/26 10:23:12;;;;;;;7.87;3.37;;;;;;;10.26;68.07;98813.69;6271872;28;20608;-44
2022/11/26 10:26:15;;;;;;;4.23;3.50;;;;;;;10.51;68.58;98809.53;6282696;28;20235;-45
2022/11/26 10:29:26;;;;;;;4.80;3.03;;;;;;;10.46;66.82;98812.47;6288430;28;20311;-44
2022/11/26 10:32:37;;;;;;;6.30;3.30;;;;;;;10.61;66.43;98802.75;6284914;28;20720;-44
2022/11/26 10:35:43;;;;;;;5.87;3.50;;;;;;;10.81;65.35;98804.13;6287439;28;20485;-45
2022/11/26 10:38:45;;;;;;;5.40;3.20;;;;;;;10.77;66.38;98803.50;6280865;28;20923;-45
2022/11/26 10:41:47;;;;;;;5.63;3.20;;;;;;;10.72;66.98;98813.47;6290012;28;20690;-44
2022/11/26 10:44:51;;;;;;;4.20;2.97;;;;;;;10.31;66.16;98816.88;6289325;28;20323;-44
2022/11/26 10:48:22;;;;;;;6.50;3.37;;;;;;;10.14;67.76;98810.91;6290280;28;20234;-44
2022/11/26 10:51:29;;;;;;;3.40;2.90;;;;;;;10.22;67.77;98806.91;6284367;28;20224;-44
2022/11/26 10:54:36;;;;;;;4.50;2.80;;;;;;;10.27;68.14;98811.91;6290325;28;20236;-44
2022/11/26 10:57:43;;;;;;;5.43;2.80;;;;;;;10.34;67.29;98807.94;6288642;28;20246;-43
2022/11/26 11:00:48;;;;;;;4.90;3.23;;;;;;;10.16;67.65;98803.75;6289948;28;20303;-44
2022/11/26 11:03:53;;;;;;;4.57;2.93;;;;;;;10.03;68.01;98800.16;6289142;28;20314;-44
2022/11/26 11:07:37;;;;;;;6.77;3.00;;;;;;;9.97;67.77;98812.78;6274497;28;20261;-44
2022/11/26 11:10:55;;;;;;;5.13;2.73;;;;;;;9.94;67.80;98806.84;6283191;28;20230;-44
2022/11/26 11:13:57;;;;;;;6.07;3.23;;;;;;;9.91;68.36;98817.56;6285792;28;20260;-44
2022/11/26 11:17:00;;;;;;;6.60;3.53;;;;;;;9.84;68.50;98806.53;6289656;28;20233;-44
2022/11/26 11:20:25;;;;;;;5.57;3.30;;;;;;;9.50;68.84;98809.44;6288315;28;20225;-44
2022/11/26 11:23:30;;;;;;;5.07;3.37;;;;;;;9.54;69.03;98801.28;6282457;28;20367;-44
2022/11/26 11:26:56;;;;;;;5.07;2.80;;;;;;;9.58;69.31;98809.88;6271496;28;20276;-43
2022/11/26 11:30:01;;;;;;;10.03;3.60;;;;;;;9.38;69.28;98804.91;6276601;28;20717;-44
2022/11/26 11:33:21;;;;;;;5.23;3.07;;;;;;;9.31;69.77;98814.06;6295785;28;20226;-45
2022/11/26 11:36:28;;;;;;;3.50;2.80;;;;;;;9.21;69.96;98805.84;6293435;28;20795;-45
2022/11/26 11:39:33;;;;;;;4.83;3.03;;;;;;;9.24;69.83;98818.84;6290546;28;20366;-43
2022/11/26 11:42:35;;;;;;;6.77;3.20;;;;;;;9.28;69.79;98820.38;6295537;28;20222;-45
2022/11/26 11:45:40;;;;;;;3.83;3.00;;;;;;;9.22;70.21;98818.06;6297523;28;20611;-43
2022/11/26 11:48:46;;;;;;;5.07;3.10;;;;;;;9.06;70.73;98828.63;6276569;28;20223;-43
2022/11/26 11:52:13;;;;;;;5.47;3.77;;;;;;;8.99;70.79;98829.88;6293066;28;20237;-44
2022/11/26 11:55:24;;;;;;;6.50;3.73;;;;;;;8.91;70.36;98828.63;6288722;28;20243;-44
2022/11/26 11:58:38;;;;;;;7.10;3.70;;;;;;;9.03;71.65;98834.06;6290344;28;20241;-44
2022/11/26 12:01:59;;;;;;;7.27;4.20;;;;;;;8.98;70.88;98837.91;6295181;28;20232;-44
2022/11/26 12:05:34;;;;;;;6.73;3.10;;;;;;;8.91;72.07;98836.50;6293971;28;20234;-45
2022/11/26 12:08:36;;;;;;;5.43;3.27;;;;;;;8.81;72.14;98834.38;6292757;28;20262;-43
2022/11/26 12:12:01;;;;;;;3.97;2.90;;;;;;;8.77;72.67;98838.13;6294532;28;20233;-44
2022/11/26 12:15:11;;;;;;;5.33;3.60;;;;;;;8.63;72.85;98840.66;6287520;28;20256;-44
2022/11/26 12:18:34;;;;;;;6.60;3.20;;;;;;;8.58;73.14;98839.22;6286884;28;20297;-44
2022/11/26 12:21:43;;;;;;;5.03;3.50;;;;;;;8.61;73.64;98839.88;6293340;28;20686;-44
2022/11/26 12:24:51;;;;;;;3.67;3.17;;;;;;;8.68;73.76;98833.38;6289955;28;20288;-43
2022/11/26 12:28:00;;;;;;;5.40;3.53;;;;;;;8.78;73.50;98831.09;6293542;28;20253;-44
2022/11/26 12:31:05;;;;;;;5.17;3.53;;;;;;;8.89;72.86;98826.06;6291314;28;20242;-44
2022/11/26 12:34:11;;;;;;;5.80;3.93;;;;;;;8.90;72.70;98817.25;6292888;28;20241;-45
2022/11/26 12:37:18;;;;;;;4.43;3.00;;;;;;;8.97;72.72;98818.63;6287914;28;20231;-44
2022/11/26 12:40:36;;;;;;;4.77;3.40;;;;;;;9.05;72.40;98820.81;6288941;28;20316;-43
2022/11/26 12:44:04;;;;;;;9.37;4.47;;;;;;;8.87;71.77;98826.19;6288791;28;20229;-43
2022/11/26 12:47:20;;;;;;;3.87;3.33;;;;;;;8.78;72.01;98836.34;6291068;28;20222;-43
2022/11/26 12:50:43;;;;;;;5.40;3.30;;;;;;;8.83;72.63;98816.75;6288421;28;20754;-43
2022/11/26 12:54:01;;;;;;;6.43;3.87;;;;;;;8.92;72.86;98838.22;6287061;28;20238;-44
2022/11/26 12:57:03;;;;;;;5.67;4.03;;;;;;;8.95;72.63;98835.41;6272165;28;20251;-43
2022/11/26 13:00:13;;;;;;;6.23;3.80;;;;;;;8.84;72.98;98834.22;6291390;28;20222;-44
2022/11/26 13:03:17;;;;;;;6.20;4.03;;;;;;;8.63;73.49;98832.75;6293091;28;20219;-44
2022/11/26 13:06:45;;;;;;;5.27;4.37;;;;;;;8.47;73.44;98837.16;6279109;28;20247;-44
2022/11/26 13:10:00;;;;;;;6.57;4.00;;;;;;;8.38;74.34;98843.75;6286361;28;20233;-44
2022/11/26 13:13:26;;;;;;;5.00;4.47;;;;;;;8.23;75.57;98841.03;6287925;28;20225;-44
2022/11/26 13:16:50;;;;;;;5.47;3.83;;;;;;;8.17;75.99;98836.09;6290789;28;20722;-44
2022/11/26 13:20:08;;;;;;;7.20;4.30;;;;;;;8.15;76.53;98841.44;6284346;28;20313;-46
2022/11/26 13:23:42;;;;;;;6.17;4.00;;;;;;;8.12;76.64;98841.59;6288016;28;20229;-45
2022/11/26 13:27:06;;;;;;;7.87;4.30;;;;;;;8.11;77.44;98839.88;6289674;28;20581;-44
2022/11/26 13:30:17;;;;;;;6.23;4.03;;;;;;;8.16;76.66;98835.25;6287482;28;20261;-44
2022/11/26 13:33:36;;;;;;;7.13;4.13;;;;;;;8.24;76.80;98833.06;6254373;28;20233;-44
2022/11/26 13:37:05;;;;;;;5.77;3.63;;;;;;;8.28;76.95;98839.88;6288038;28;20245;-44
2022/11/26 13:40:29;;;;;;;6.33;3.27;;;;;;;8.32;76.76;98849.31;6249448;28;20613;-43
2022/11/26 13:43:40;;;;;;;4.80;3.50;;;;;;;8.22;76.76;98849.84;6288849;28;20234;-44
2022/11/26 13:47:12;;;;;;;6.80;3.67;;;;;;;8.13;76.76;98852.03;6291195;28;20241;-44
2022/11/26 13:50:25;;;;;;;6.90;3.67;;;;;;;7.99;77.15;98845.78;6290811;28;20229;-44
2022/11/26 13:53:38;;;;;;;4.93;3.30;;;;;;;7.86;77.75;98855.22;6285944;28;20325;-44
2022/11/26 13:56:41;;;;;;;4.17;2.70;;;;;;;7.73;78.15;98853.22;6291956;28;20746;-44
2022/11/26 13:59:46;;;;;;;5.93;3.90;;;;;;;7.59;78.66;98845.16;6291328;28;20252;-43
2022/11/26 14:02:48;;;;;;;6.00;3.87;;;;;;;7.41;79.82;98852.16;6285655;28;20226;-43
2022/11/26 14:05:50;;;;;;;7.13;3.67;;;;;;;7.34;80.34;98850.78;6290875;28;20241;-43
2022/11/26 14:08:53;;;;;;;5.03;3.27;;;;;;;7.28;80.55;98853.72;6290629;28;20213;-44
2022/11/26 14:11:55;;;;;;;4.70;2.73;;;;;;;7.19;80.83;98855.88;6289243;28;20230;-44
2022/11/26 14:14:58;;;;;;;4.20;2.50;;;;;;;7.06;81.52;98862.66;6290051;28;20222;-44
2022/11/26 14:18:00;;;;;;;4.43;3.37;;;;;;;7.03;81.93;98866.28;6287671;28;20607;-43
2022/11/26 14:21:02;;;;;;;3.60;2.97;;;;;;;7.03;81.98;98859.25;6289233;28;20213;-45
2022/11/26 14:24:05;;;;;;;5.27;3.50;;;;;;;7.00;82.07;98866.41;6286786;28;20299;-44
2022/11/26 14:27:07;;;;;;;2.93;2.63;;;;;;;6.97;82.57;98871.81;6286418;28;20216;-44
2022/11/26 14:30:12;;;;;;;4.17;3.10;;;;;;;6.95;82.99;98863.16;6289221;28;20304;-44
2022/11/26 14:33:22;;;;;;;3.50;2.73;;;;;;;6.92;83.45;98872.03;6289711;28;20210;-43
2022/11/26 14:36:27;;;;;;;4.07;3.13;;;;;;;6.78;83.67;98877.09;6289022;28;20966;-44
2022/11/26 14:39:30;;;;;;;5.27;3.40;;;;;;;6.69;84.38;98869.59;6289311;28;20253;-44
2022/11/26 14:42:33;;;;;;;4.90;3.60;;;;;;;6.68;84.37;98867.06;6290712;28;20306;-43
2022/11/26 14:45:35;;;;;;;3.83;3.03;;;;;;;6.59;84.73;98869.16;6289483;28;20463;-44
2022/11/26 14:48:42;;;;;;;4.30;2.60;;;;;;;6.43;85.05;98870.78;6289467;28;20244;-44
2022/11/26 14:51:47;;;;;;;3.27;2.50;;;;;;;6.28;85.95;98872.34;6287690;28;20252;-44